Time;durP1;ratioP1;P1;durP2;ratioP2;P2;SDS_P1;SDS_P2;PMS_P1;PMS_P2;Temp;Humidity;BMP_temperature;BMP_pressure;BME280_temperature;BME280_humidity;BME280_pressure;Samples;Min_cycle;Max_cycle;Signal;HPM_P1;HPM_P2
2023/03/01 05:22:19;;;;;;;812.30;769.78;;;-5.00;99.90;;;;;;6213198;23;20637;-88
2023/03/01 11:34:00;;;;;;;16.20;9.73;;;10.80;13.90;;;;;;5984537;22;5140399;-84
2023/03/01 11:36:32;;;;;;;18.20;10.70;;;11.40;12.30;;;;;;6134933;23;20176;-86
2023/03/01 11:39:05;;;;;;;15.83;10.07;;;11.20;11.50;;;;;;6134228;23;20425;-85
2023/03/01 11:41:37;;;;;;;19.67;10.63;;;11.20;11.70;;;;;;6134887;23;20510;-82
2023/03/01 12:16:10;;;;;;;15.63;9.67;;;11.80;4.20;;;;;;6165424;23;20983;-86
2023/03/01 12:37:55;;;;;;;13.30;9.10;;;11.60;7.00;;;;;;6140570;23;21010;-79
2023/03/01 12:40:55;;;;;;;12.00;7.47;;;11.00;5.90;;;;;;6154019;23;20401;-83
2023/03/01 12:43:37;;;;;;;14.40;9.97;;;10.60;9.60;;;;;;6162044;23;20429;-81
2023/03/01 12:46:27;;;;;;;13.90;9.00;;;10.60;8.10;;;;;;6153837;23;20433;-83
2023/03/01 12:49:07;;;;;;;11.30;6.87;;;10.70;7.20;;;;;;6152422;23;20773;-81
2023/03/01 12:51:36;;;;;;;11.63;6.93;;;10.30;6.80;;;;;;6154221;23;20392;-78
2023/03/01 12:54:15;;;;;;;13.60;9.17;;;10.20;8.80;;;;;;6153706;23;20417;-80
2023/03/01 12:56:51;;;;;;;12.63;7.33;;;10.10;10.10;;;;;;6162341;23;20398;-82
2023/03/01 12:59:25;;;;;;;15.47;9.30;;;9.90;10.80;;;;;;6126760;23;20477;-83
2023/03/01 13:02:00;;;;;;;18.70;9.30;;;10.30;11.60;;;;;;6127272;23;20437;-83
2023/03/01 13:04:47;;;;;;;15.87;9.07;;;10.40;9.20;;;;;;6152428;23;20434;-81
2023/03/01 13:07:25;;;;;;;15.50;7.73;;;10.20;9.40;;;;;;6152510;23;20414;-82
2023/03/01 13:10:07;;;;;;;16.63;10.47;;;10.30;12.80;;;;;;6128280;23;20458;-82
2023/03/01 13:12:47;;;;;;;16.10;9.40;;;11.10;13.30;;;;;;6153824;23;20395;-82
2023/03/01 13:15:31;;;;;;;14.27;9.40;;;11.00;13.20;;;;;;6153451;23;20437;-81
2023/03/01 13:18:00;;;;;;;14.67;7.97;;;11.10;11.10;;;;;;6154359;23;20405;-81
2023/03/01 13:20:31;;;;;;;11.30;6.40;;;10.40;11.30;;;;;;6155294;23;20445;-83
2023/03/01 13:23:10;;;;;;;14.13;8.17;;;10.80;12.20;;;;;;6127851;23;20424;-82
2023/03/01 13:26:05;;;;;;;14.40;9.30;;;10.30;9.80;;;;;;6153285;23;20517;-83
2023/03/01 13:28:55;;;;;;;15.10;9.50;;;10.70;11.10;;;;;;6127491;23;20482;-83
2023/03/01 13:31:58;;;;;;;15.33;8.33;;;11.30;10.90;;;;;;6155497;23;20942;-81
2023/03/01 13:34:45;;;;;;;12.00;8.60;;;11.10;8.20;;;;;;6118856;23;20435;-82
2023/03/01 13:37:23;;;;;;;13.27;9.17;;;10.70;6.70;;;;;;6154358;23;20410;-82
2023/03/01 13:39:50;;;;;;;15.43;6.87;;;10.80;10.10;;;;;;6154498;23;20899;-81
2023/03/01 13:42:41;;;;;;;11.23;6.00;;;9.50;7.90;;;;;;6155218;23;20442;-82
2023/03/01 13:45:24;;;;;;;16.03;8.60;;;9.30;12.80;;;;;;6154385;23;20460;-81
2023/03/01 13:47:57;;;;;;;12.77;5.87;;;9.20;16.50;;;;;;6155260;23;20394;-81
2023/03/01 13:50:26;;;;;;;12.63;8.23;;;8.50;19.00;;;;;;6155600;23;20400;-82
2023/03/01 13:52:59;;;;;;;9.67;5.77;;;8.50;20.10;;;;;;6130163;23;20428;-83
2023/03/01 13:55:33;;;;;;;13.93;6.37;;;8.10;17.00;;;;;;6129871;23;20449;-82
2023/03/01 13:58:05;;;;;;;12.30;7.90;;;8.00;20.60;;;;;;6154727;23;20405;-82
2023/03/01 14:00:35;;;;;;;15.33;9.57;;;7.70;22.50;;;;;;6128916;23;20414;-82
2023/03/01 14:03:12;;;;;;;10.97;6.80;;;7.70;23.70;;;;;;6155337;23;20476;-83
2023/03/01 14:05:39;;;;;;;14.10;5.93;;;7.70;24.40;;;;;;6155170;23;20472;-82
2023/03/01 14:08:20;;;;;;;14.30;9.13;;;7.80;23.60;;;;;;6154434;23;20907;-83
2023/03/01 14:11:06;;;;;;;11.90;7.13;;;7.70;24.60;;;;;;6154135;23;20480;-82
2023/03/01 14:13:46;;;;;;;9.17;5.60;;;7.70;26.20;;;;;;6089630;23;20930;-81
2023/03/01 14:16:25;;;;;;;11.13;6.20;;;7.50;25.50;;;;;;6154982;23;20946;-82
2023/03/01 14:19:02;;;;;;;11.80;6.40;;;7.60;26.10;;;;;;6129004;23;20398;-81
2023/03/01 14:21:31;;;;;;;13.83;8.80;;;7.40;25.60;;;;;;6155039;23;20426;-84
2023/03/01 14:23:59;;;;;;;9.17;5.00;;;7.60;28.30;;;;;;6153760;23;20409;-83
2023/03/01 14:26:28;;;;;;;15.07;7.47;;;7.60;26.80;;;;;;6154084;23;20497;-82
2023/03/01 14:28:56;;;;;;;13.57;7.80;;;7.60;25.10;;;;;;6153304;23;20417;-80
2023/03/01 14:31:36;;;;;;;17.20;8.80;;;7.50;26.10;;;;;;6162485;23;20424;-82
2023/03/01 14:34:03;;;;;;;13.38;7.90;;;7.40;26.00;;;;;;6153183;23;20727;-83
2023/03/01 14:36:35;;;;;;;12.60;7.73;;;7.60;27.30;;;;;;6154938;23;20201;-85
2023/03/01 14:39:09;;;;;;;15.10;8.87;;;7.30;28.80;;;;;;6127156;23;20915;-84
2023/03/01 14:41:37;;;;;;;15.80;9.33;;;7.30;28.20;;;;;;6153194;23;20461;-84
2023/03/01 14:44:20;;;;;;;14.03;9.10;;;7.40;28.10;;;;;;6153752;23;20922;-86
2023/03/01 14:46:48;;;;;;;15.23;9.60;;;7.60;29.20;;;;;;6154096;23;20468;-84
2023/03/01 14:49:19;;;;;;;14.37;9.20;;;7.50;26.10;;;;;;6126540;23;20497;-83
2023/03/01 14:51:53;;;;;;;15.30;8.80;;;7.40;27.40;;;;;;6154670;23;20445;-82
2023/03/01 14:54:26;;;;;;;11.83;7.73;;;7.50;31.00;;;;;;6128189;23;20467;-83
2023/03/01 14:56:55;;;;;;;17.00;9.17;;;7.30;30.50;;;;;;6154732;23;20480;-86
2023/03/01 14:59:26;;;;;;;15.67;9.03;;;7.20;29.90;;;;;;6154350;23;20793;-82
2023/03/01 15:01:56;;;;;;;13.30;9.90;;;7.40;30.50;;;;;;6127108;23;20441;-83
2023/03/01 15:04:29;;;;;;;12.10;7.60;;;7.40;32.80;;;;;;6153143;23;20444;-83
2023/03/01 15:07:04;;;;;;;13.13;9.07;;;7.40;30.80;;;;;;6152899;23;20402;-84
2023/03/01 15:09:35;;;;;;;15.60;8.90;;;7.70;34.50;;;;;;6153109;23;20417;-94
2023/03/01 15:12:46;;;;;;;14.57;8.97;;;7.90;29.70;;;;;;6127818;23;20414;-84
2023/03/01 15:24:19;;;;;;;14.27;8.17;;;9.30;27.00;;;;;;6183014;23;20409;-85
2023/03/01 15:32:06;;;;;;;16.00;9.37;;;8.50;25.90;;;;;;6153715;23;20433;-87
2023/03/01 15:34:36;;;;;;;13.60;8.07;;;8.10;26.80;;;;;;6163699;23;20445;-84
2023/03/01 15:37:08;;;;;;;11.43;7.43;;;8.10;26.50;;;;;;6128388;23;20418;-84
2023/03/01 15:39:42;;;;;;;18.07;8.10;;;8.20;26.50;;;;;;6152396;23;20481;-85
2023/03/01 15:42:11;;;;;;;11.27;6.90;;;8.00;26.90;;;;;;6152141;23;20425;-84
2023/03/01 15:44:42;;;;;;;13.53;7.83;;;7.90;27.70;;;;;;6152889;23;20473;-85
2023/03/01 15:47:24;;;;;;;14.90;7.30;;;7.80;26.30;;;;;;6153680;23;20405;-84
2023/03/01 15:49:54;;;;;;;10.57;6.77;;;7.60;27.50;;;;;;6153463;23;20626;-84
2023/03/01 15:52:28;;;;;;;17.97;7.60;;;7.30;29.30;;;;;;6127062;23;20422;-83
2023/03/01 15:54:58;;;;;;;16.30;8.33;;;7.20;29.90;;;;;;6127092;23;20830;-84
2023/03/01 15:57:25;;;;;;;14.27;7.17;;;7.00;31.30;;;;;;6152732;23;20792;-82
2023/03/01 15:59:53;;;;;;;13.03;7.50;;;6.90;30.60;;;;;;6161547;23;20448;-84
2023/03/01 16:02:22;;;;;;;13.63;7.93;;;6.90;30.60;;;;;;6162888;23;20444;-84
2023/03/01 16:04:49;;;;;;;12.27;7.60;;;6.70;31.20;;;;;;6153646;23;20438;-83
2023/03/01 16:07:16;;;;;;;14.17;8.63;;;6.60;32.20;;;;;;6153473;23;20425;-81
2023/03/01 16:09:45;;;;;;;18.90;8.37;;;6.60;32.90;;;;;;6163492;23;20774;-82
2023/03/01 16:12:16;;;;;;;10.53;7.03;;;6.60;32.20;;;;;;6153600;23;20501;-82
2023/03/01 16:14:42;;;;;;;15.23;7.40;;;6.50;31.30;;;;;;6153199;23;20444;-82
2023/03/01 16:17:11;;;;;;;11.50;7.07;;;6.70;31.90;;;;;;6153384;23;20497;-82
2023/03/01 16:19:38;;;;;;;11.53;6.67;;;6.40;32.20;;;;;;6100563;23;20429;-82
2023/03/01 16:22:05;;;;;;;12.07;7.43;;;6.30;32.80;;;;;;6151314;23;20516;-82
2023/03/01 16:24:32;;;;;;;12.30;7.03;;;6.30;34.80;;;;;;6150879;23;20812;-82
2023/03/01 16:27:00;;;;;;;17.57;7.43;;;6.30;36.00;;;;;;6148989;23;20413;-82
2023/03/01 16:29:28;;;;;;;13.20;8.27;;;6.40;35.30;;;;;;6153159;23;20414;-82
2023/03/01 16:31:56;;;;;;;9.20;4.27;;;6.30;33.70;;;;;;6153249;23;20890;-83
2023/03/01 16:34:23;;;;;;;11.37;6.97;;;6.50;31.30;;;;;;6153616;23;20444;-83
2023/03/01 16:36:50;;;;;;;20.90;7.00;;;6.50;33.20;;;;;;6153201;23;20413;-83
2023/03/01 16:39:17;;;;;;;12.57;6.87;;;6.50;35.20;;;;;;6153047;23;20417;-83
2023/03/01 16:41:44;;;;;;;11.13;7.10;;;6.20;34.90;;;;;;6153553;23;20418;-83
2023/03/01 16:44:12;;;;;;;14.13;7.00;;;6.00;35.30;;;;;;6153100;23;20444;-84
2023/03/01 16:46:42;;;;;;;18.40;8.27;;;5.90;37.30;;;;;;6152991;23;20445;-83
2023/03/01 16:49:09;;;;;;;20.10;10.63;;;5.70;37.80;;;;;;6152859;23;20450;-82
2023/03/01 16:51:36;;;;;;;14.67;8.53;;;5.70;37.50;;;;;;6152896;23;20410;-82
2023/03/01 16:54:06;;;;;;;20.60;9.70;;;5.50;37.00;;;;;;6128801;23;20937;-83
2023/03/01 16:56:37;;;;;;;14.47;6.00;;;5.50;37.90;;;;;;6165716;23;20725;-82
2023/03/01 16:59:05;;;;;;;12.87;8.77;;;5.40;37.00;;;;;;6154680;23;20398;-83
2023/03/01 17:22:21;;;;;;;11.70;6.90;;;3.90;44.70;;;;;;6184641;23;20490;-84
2023/03/01 17:30:18;;;;;;;14.50;7.70;;;4.00;44.80;;;;;;6153039;23;20430;-84
2023/03/01 17:32:49;;;;;;;13.30;7.60;;;4.00;45.50;;;;;;6127775;23;20489;-84
2023/03/01 17:35:16;;;;;;;11.07;6.20;;;3.90;45.70;;;;;;6127214;23;20868;-83
2023/03/01 17:37:48;;;;;;;11.40;7.03;;;3.70;46.80;;;;;;6153889;23;20801;-84
2023/03/01 17:40:45;;;;;;;14.37;7.87;;;3.40;47.70;;;;;;6152741;23;20414;-84
2023/03/01 17:58:56;;;;;;;16.37;7.13;;;2.80;54.10;;;;;;6152810;23;20454;-84
2023/03/01 18:01:24;;;;;;;12.07;7.40;;;2.90;54.70;;;;;;6126992;23;20418;-84
2023/03/01 18:03:52;;;;;;;12.03;8.23;;;2.90;55.80;;;;;;6152472;23;20441;-84
2023/03/01 18:06:21;;;;;;;14.60;8.10;;;2.90;55.40;;;;;;6153293;23;20424;-85
2023/03/01 18:08:51;;;;;;;13.07;8.50;;;3.10;55.40;;;;;;6153276;23;20496;-83
2023/03/01 18:11:26;;;;;;;13.90;8.20;;;3.10;55.60;;;;;;6127103;23;20513;-83
2023/03/01 18:13:58;;;;;;;14.20;8.10;;;3.00;55.90;;;;;;6126424;23;20800;-80
2023/03/01 18:16:25;;;;;;;14.30;8.30;;;2.90;55.80;;;;;;6127014;23;20528;-82
2023/03/01 18:18:56;;;;;;;15.43;8.53;;;2.90;55.80;;;;;;6127042;23;20418;-82
2023/03/01 18:21:24;;;;;;;15.60;10.07;;;2.70;55.70;;;;;;6127184;23;20790;-84
2023/03/01 18:23:56;;;;;;;13.53;7.17;;;2.70;56.30;;;;;;6163092;23;20489;-84
2023/03/01 18:26:26;;;;;;;14.30;8.37;;;2.60;57.60;;;;;;6152944;23;20461;-84
2023/03/01 18:28:57;;;;;;;18.00;8.40;;;2.40;58.90;;;;;;6152430;23;20418;-84
2023/03/01 18:31:24;;;;;;;17.17;8.50;;;2.50;60.50;;;;;;6162409;23;21203;-84
2023/03/01 18:33:57;;;;;;;17.77;8.93;;;2.40;61.90;;;;;;6163087;23;20946;-84
2023/03/01 18:36:26;;;;;;;13.63;7.37;;;2.30;61.80;;;;;;6163822;23;20418;-83
2023/03/01 18:38:55;;;;;;;15.00;7.30;;;2.50;61.30;;;;;;6163475;23;20424;-85
2023/03/01 18:41:23;;;;;;;13.30;8.43;;;2.50;61.20;;;;;;6163789;23;20426;-84
2023/03/01 18:43:50;;;;;;;16.27;8.50;;;2.80;61.30;;;;;;6163986;23;20905;-84
2023/03/01 18:46:19;;;;;;;10.97;7.37;;;2.80;59.90;;;;;;6163802;23;20997;-85
2023/03/01 18:48:55;;;;;;;14.30;6.97;;;3.00;59.00;;;;;;6163807;23;20417;-85
2023/03/01 18:51:28;;;;;;;15.47;8.27;;;2.90;59.00;;;;;;6163755;23;20417;-85
2023/03/01 18:53:57;;;;;;;13.60;8.23;;;2.90;59.20;;;;;;6163532;23;20438;-85
2023/03/01 18:56:28;;;;;;;14.53;6.83;;;2.90;59.10;;;;;;6163568;23;20476;-85
2023/03/01 18:58:56;;;;;;;15.47;7.50;;;3.00;58.60;;;;;;6162375;23;20949;-85
2023/03/01 19:01:29;;;;;;;14.30;8.40;;;3.10;58.60;;;;;;6161453;23;20424;-86
2023/03/01 19:04:01;;;;;;;23.73;9.70;;;3.00;58.50;;;;;;6161744;23;20417;-85
2023/03/01 19:08:59;;;;;;;42.47;22.30;;;2.70;60.10;;;;;;6185756;23;20788;-84
2023/03/01 19:11:29;;;;;;;47.50;25.60;;;2.50;61.10;;;;;;6182382;23;20467;-84
2023/03/01 19:13:57;;;;;;;44.40;24.47;;;2.30;62.10;;;;;;6189625;23;20959;-84
2023/03/01 19:16:32;;;;;;;28.90;14.40;;;2.30;63.10;;;;;;6163216;23;20493;-83
2023/03/01 19:19:08;;;;;;;22.10;12.57;;;2.10;63.90;;;;;;6163837;23;20413;-83
2023/03/01 19:21:39;;;;;;;32.07;15.03;;;1.90;64.70;;;;;;6162859;23;20476;-83
2023/03/01 19:24:07;;;;;;;48.00;19.60;;;1.70;65.70;;;;;;6162859;23;20417;-83
2023/03/01 19:26:36;;;;;;;35.30;14.70;;;1.50;69.10;;;;;;6163738;23;21076;-83
2023/03/01 19:29:05;;;;;;;33.23;15.17;;;1.20;69.50;;;;;;6163323;23;20421;-83
2023/03/01 19:31:42;;;;;;;42.22;13.82;;;1.10;70.80;;;;;;6163762;23;20417;-83
2023/03/01 19:34:13;;;;;;;44.73;19.30;;;1.00;72.50;;;;;;6163461;23;20213;-84
2023/03/01 19:36:43;;;;;;;34.70;15.10;;;0.70;75.00;;;;;;6164313;23;20500;-83
2023/03/01 19:39:18;;;;;;;44.17;18.70;;;0.60;76.90;;;;;;6162437;23;20406;-83
2023/03/01 19:44:23;;;;;;;18.80;10.75;;;0.30;78.80;;;;;;6180004;23;20206;-83
2023/03/01 19:54:29;;;;;;;16.13;10.10;;;-0.20;84.20;;;;;;6180132;23;20957;-85
2023/03/01 19:56:56;;;;;;;20.00;10.40;;;-0.30;88.30;;;;;;6163814;23;20472;-85
2023/03/01 19:59:27;;;;;;;19.27;10.77;;;-0.40;89.80;;;;;;6162906;23;20428;-85
2023/03/01 20:02:00;;;;;;;20.47;9.93;;;-0.60;91.50;;;;;;6163778;23;20421;-85
2023/03/01 20:09:41;;;;;;;16.35;8.75;;;-0.70;97.20;;;;;;6183871;23;20436;-84
2023/03/01 20:12:09;;;;;;;23.20;9.23;;;-0.40;97.60;;;;;;6183151;23;20173;-84
2023/03/01 20:14:49;;;;;;;24.63;8.30;;;-0.60;99.90;;;;;;6172690;23;20928;-84
2023/03/01 20:17:16;;;;;;;22.83;8.90;;;-0.60;99.90;;;;;;6163895;23;20417;-84
2023/03/01 20:19:46;;;;;;;12.35;7.88;;;-0.50;99.90;;;;;;6162736;23;20197;-84
2023/03/01 20:24:56;;;;;;;16.23;9.95;;;-0.80;99.90;;;;;;6172521;23;20208;-84
2023/03/01 20:27:26;;;;;;;16.20;9.00;;;-1.00;99.90;;;;;;6153149;23;20190;-84
2023/03/01 20:29:55;;;;;;;19.52;8.95;;;-1.20;99.90;;;;;;6154005;23;20225;-84
2023/03/01 20:32:22;;;;;;;30.20;10.50;;;-1.00;99.90;;;;;;6162196;23;20221;-84
2023/03/01 20:34:54;;;;;;;27.83;13.40;;;-0.50;99.90;;;;;;6163680;23;20241;-84
2023/03/01 20:37:25;;;;;;;23.67;10.13;;;-0.10;99.90;;;;;;6163408;23;20550;-84
2023/03/01 20:47:30;;;;;;;16.30;7.90;;;0.60;90.80;;;;;;6183694;23;20451;-85
2023/03/01 20:50:06;;;;;;;17.73;8.90;;;0.80;87.40;;;;;;6156619;23;20412;-85
2023/03/01 20:52:33;;;;;;;17.70;5.40;;;0.80;86.80;;;;;;6191874;23;20411;-84
2023/03/01 21:10:56;;;;;;;21.10;9.50;;;1.00;85.50;;;;;;6066094;22;2008017;-84
2023/03/01 21:13:31;;;;;;;31.37;11.33;;;0.90;85.40;;;;;;6132499;23;20159;-84
